createdAt,value
2018-07-16T00:30:48.358Z,37.50
2018-07-16T00:35:45.092Z,37.70
2018-07-16T00:38:13.603Z,37.60
2018-07-16T00:40:42.219Z,37.70
2018-07-16T00:43:10.750Z,37.60
2018-07-16T00:45:39.329Z,37.70
2018-07-16T00:48:07.862Z,37.70
2018-07-16T00:50:36.384Z,37.90
2018-07-16T00:53:04.979Z,38.00
2018-07-16T00:55:33.504Z,38.20
2018-07-16T00:58:02.071Z,38.40
2018-07-16T01:00:30.582Z,38.50
2018-07-16T01:02:59.099Z,38.70
2018-07-16T01:05:28.667Z,38.90
2018-07-16T01:07:57.189Z,38.80
2018-07-16T01:10:25.770Z,38.80
2018-07-16T01:15:22.541Z,38.70
2018-07-16T01:20:19.387Z,39.30
2018-07-16T01:25:16.152Z,39.20
2018-07-16T01:27:44.671Z,39.90
2018-07-16T01:30:13.208Z,39.10
2018-07-16T01:35:09.944Z,39.10
2018-07-16T01:37:38.504Z,39.30
2018-07-16T01:40:07.031Z,39.50
2018-07-16T01:47:32.979Z,39.80
2018-07-16T01:52:29.730Z,40.00
2018-07-16T01:54:58.281Z,39.80
2018-07-16T01:57:26.796Z,39.80
2018-07-16T02:02:23.488Z,40.20
2018-07-16T02:04:51.999Z,40.20
2018-07-16T02:07:20.541Z,40.20
2018-07-16T02:09:49.069Z,40.20
2018-07-16T02:12:17.645Z,40.30
2018-07-16T02:14:46.186Z,40.10
2018-07-16T02:17:15.364Z,40.70
2018-07-16T02:22:12.052Z,40.50
2018-07-16T02:24:40.591Z,40.10
2018-07-16T02:27:09.184Z,40.00
2018-07-16T02:29:37.779Z,40.00
2018-07-16T02:32:06.279Z,39.90
2018-07-16T02:34:34.761Z,39.80
2018-07-16T02:37:03.361Z,40.00
2018-07-16T02:39:31.928Z,40.30
2018-07-16T02:42:00.798Z,40.40
2018-07-16T02:44:29.380Z,40.40
2018-07-16T02:46:57.984Z,40.50
2018-07-16T02:49:27.452Z,40.60
2018-07-16T02:56:53.467Z,40.90
2018-07-16T02:59:21.976Z,40.80
2018-07-16T03:01:50.621Z,40.50
2018-07-16T03:04:19.146Z,40.80
2018-07-16T03:06:47.733Z,40.80
2018-07-16T03:09:16.284Z,40.70
2018-07-16T03:11:44.880Z,40.70
2018-07-16T03:14:13.452Z,40.80
2018-07-16T03:16:42.036Z,40.90
2018-07-16T03:19:10.556Z,40.90
2018-07-16T03:24:07.255Z,41.10
2018-07-16T03:26:35.897Z,41.30
2018-07-16T03:29:04.445Z,41.40
2018-07-16T03:31:33.012Z,41.60
2018-07-16T03:34:01.537Z,41.80
2018-07-16T03:38:58.294Z,42.30
2018-07-16T03:43:55.027Z,43.00
2018-07-16T03:46:23.573Z,43.60
2018-07-16T03:48:52.175Z,44.00
2018-07-16T03:51:20.735Z,44.50
2018-07-16T03:53:49.309Z,44.60
2018-07-16T03:56:17.851Z,44.30
2018-07-16T03:58:46.454Z,44.40
2018-07-16T04:01:15.022Z,44.80
2018-07-16T04:03:43.610Z,44.70
2018-07-16T04:06:12.187Z,45.00
2018-07-16T04:08:40.770Z,45.10
2018-07-16T04:13:37.572Z,44.80
2018-07-16T04:16:06.248Z,44.60
2018-07-16T04:18:34.790Z,44.70
2018-07-16T04:21:03.371Z,44.70
2018-07-16T04:23:31.939Z,44.40
2018-07-16T04:26:00.524Z,44.10
2018-07-16T04:28:29.176Z,44.30
2018-07-16T04:30:57.911Z,44.50
2018-07-16T04:33:26.763Z,44.40
2018-07-16T04:35:55.391Z,44.20
2018-07-16T04:38:23.975Z,43.80
2018-07-16T04:40:52.569Z,44.00
2018-07-16T04:43:21.099Z,44.10
2018-07-16T04:45:50.665Z,44.00
2018-07-16T04:48:19.183Z,43.80
2018-07-16T04:50:47.755Z,43.70
2018-07-16T04:53:16.322Z,43.70
2018-07-16T04:58:13.135Z,43.60
2018-07-16T05:00:41.713Z,43.50
2018-07-16T05:03:10.270Z,43.80
2018-07-16T05:05:38.822Z,44.20
2018-07-16T05:08:07.520Z,44.30
2018-07-16T05:10:39.463Z,44.20
2018-07-16T05:13:08.142Z,44.00
2018-07-16T05:15:36.724Z,43.90
2018-07-16T05:18:06.461Z,43.80
2018-07-16T05:20:52.732Z,43.50
2018-07-16T05:23:21.464Z,43.70
2018-07-16T05:25:50.000Z,43.80
2018-07-16T05:28:18.634Z,44.10
2018-07-16T05:30:47.222Z,44.20
2018-07-16T05:33:15.776Z,44.00
2018-07-16T05:35:44.390Z,44.00
2018-07-16T05:38:13.064Z,44.00
2018-07-16T05:40:41.791Z,42.80
2018-07-16T05:43:10.296Z,42.40
2018-07-16T05:45:38.786Z,39.80
2018-07-16T05:48:07.306Z,34.40
2018-07-16T05:50:36.948Z,31.60
2018-07-16T05:53:06.090Z,32.40
2018-07-16T05:55:34.659Z,32.80
2018-07-16T05:58:03.215Z,30.20
2018-07-16T06:00:31.728Z,27.60
2018-07-16T06:03:00.348Z,26.80
2018-07-16T06:05:28.907Z,25.00
2018-07-16T06:07:57.465Z,23.20
2018-07-16T06:10:26.343Z,22.50
2018-07-16T06:12:54.983Z,21.70
2018-07-16T06:17:51.991Z,19.60
2018-07-16T06:20:20.579Z,18.30
2018-07-16T06:22:49.142Z,18.30
2018-07-16T06:25:18.582Z,17.90
2018-07-16T06:27:47.131Z,17.60
2018-07-16T06:30:16.212Z,17.20
2018-07-16T06:32:44.769Z,17.60
2018-07-16T06:37:41.508Z,17.80
2018-07-16T06:40:10.121Z,17.10
2018-07-16T06:42:38.687Z,17.50
2018-07-16T06:45:22.637Z,17.30
2018-07-16T06:52:08.731Z,17.30
2018-07-16T06:54:37.404Z,17.00
2018-07-16T06:57:06.012Z,17.60
2018-07-16T06:59:34.520Z,17.80
2018-07-16T07:02:03.089Z,17.80
2018-07-16T07:04:31.605Z,18.00
2018-07-16T07:07:00.352Z,18.60
2018-07-16T07:09:28.890Z,19.70
2018-07-16T07:11:57.467Z,21.00
2018-07-16T07:14:26.022Z,22.70
2018-07-16T07:16:55.534Z,24.70
2018-07-16T07:19:24.153Z,26.10
2018-07-16T07:21:52.936Z,27.00
2018-07-16T07:24:21.448Z,28.40
2018-07-16T07:26:50.165Z,29.80
2018-07-16T07:29:19.964Z,30.50
2018-07-16T07:31:54.372Z,30.20
2018-07-16T07:34:22.948Z,31.90
2018-07-16T07:36:51.824Z,32.40
2018-07-16T07:39:20.419Z,32.30
2018-07-16T07:41:48.929Z,33.10
2018-07-16T07:44:17.466Z,33.60
2018-07-16T07:46:45.991Z,34.00
2018-07-16T07:49:15.909Z,34.10
2018-07-16T07:51:44.567Z,34.20
2018-07-16T07:54:13.139Z,34.60
2018-07-16T07:56:41.901Z,34.50
2018-07-16T07:59:10.448Z,34.70
2018-07-16T08:01:39.039Z,34.90
2018-07-16T08:04:07.585Z,34.80
2018-07-16T08:06:36.105Z,34.10
2018-07-16T08:09:06.083Z,34.90
2018-07-16T08:11:34.651Z,35.60
2018-07-16T08:14:03.319Z,35.20
2018-07-16T08:16:31.835Z,35.60
2018-07-16T08:21:28.603Z,35.60
2018-07-16T08:23:57.125Z,35.40
2018-07-16T08:26:25.775Z,35.10
2018-07-16T08:28:54.340Z,35.30
2018-07-16T08:31:23.000Z,35.30
2018-07-16T08:33:51.627Z,35.30
2018-07-16T08:36:20.218Z,34.60
2018-07-16T08:38:48.975Z,35.90
2018-07-16T08:41:17.506Z,36.00
2018-07-16T08:43:46.085Z,35.90
2018-07-16T08:46:14.727Z,36.10
2018-07-16T08:48:43.263Z,35.60
2018-07-16T08:51:11.836Z,35.40
2018-07-16T08:53:40.389Z,35.50
2018-07-16T08:56:09.020Z,35.20
2018-07-16T08:58:37.616Z,35.20
2018-07-16T09:01:06.338Z,35.30
2018-07-16T09:03:34.900Z,35.00
2018-07-16T09:06:05.903Z,34.60
2018-07-16T09:08:35.691Z,34.40
2018-07-16T09:11:04.717Z,34.50
2018-07-16T09:13:33.533Z,34.70
2018-07-16T09:16:02.056Z,34.60
2018-07-16T09:18:30.599Z,34.30
2018-07-16T09:21:00.140Z,34.40
2018-07-16T09:23:28.735Z,33.40
2018-07-16T09:25:57.308Z,33.10
2018-07-16T09:28:25.814Z,33.10
2018-07-16T09:39:07.009Z,32.40
2018-07-16T09:41:35.672Z,32.10
2018-07-16T09:44:05.299Z,32.10
2018-07-16T09:46:33.791Z,32.00
2018-07-16T09:49:02.364Z,31.90
2018-07-16T09:51:30.930Z,31.70
2018-07-16T09:53:59.523Z,31.10
2018-07-16T09:56:28.141Z,30.90
2018-07-16T09:58:56.622Z,31.00
2018-07-16T10:01:30.364Z,31.20
2018-07-16T10:03:58.937Z,31.30
2018-07-16T10:06:27.487Z,31.30
2018-07-16T10:08:56.193Z,31.20
2018-07-16T10:11:24.788Z,31.10
2018-07-16T10:13:53.365Z,30.80
2018-07-16T10:16:21.868Z,30.60
2018-07-16T10:18:50.360Z,30.40
2018-07-16T10:21:19.254Z,30.40
2018-07-16T10:23:47.791Z,30.10
2018-07-16T10:26:16.336Z,30.10
2018-07-16T10:28:44.892Z,29.80
2018-07-16T10:31:13.361Z,29.90
2018-07-16T10:33:42.271Z,29.90
2018-07-16T10:36:10.736Z,29.90
2018-07-16T10:38:39.527Z,29.40
2018-07-16T10:41:08.115Z,29.40
2018-07-16T10:43:36.636Z,29.00
2018-07-16T10:46:05.212Z,29.10
2018-07-16T10:48:33.790Z,28.70
2018-07-16T10:51:02.439Z,28.50
2018-07-16T10:53:31.292Z,28.40
2018-07-16T10:56:00.004Z,27.50
2018-07-16T10:58:28.494Z,27.40
2018-07-16T11:00:57.150Z,27.40
2018-07-16T11:03:25.895Z,26.70
2018-07-16T11:05:54.424Z,26.30
2018-07-16T11:10:51.837Z,27.10
2018-07-16T11:13:20.394Z,26.20
2018-07-16T11:15:48.975Z,26.00
2018-07-16T11:20:45.689Z,25.70
2018-07-16T11:23:14.188Z,26.00
2018-07-16T11:25:47.425Z,26.70
2018-07-16T11:28:15.948Z,26.80
2018-07-16T11:30:44.522Z,26.70
2018-07-16T11:33:13.133Z,25.10
2018-07-16T11:35:41.723Z,25.40
2018-07-16T11:38:10.331Z,24.60
2018-07-16T11:40:38.892Z,25.20
2018-07-16T11:43:07.511Z,25.10
2018-07-16T11:45:36.023Z,25.00
2018-07-16T11:48:05.610Z,24.90
2018-07-16T11:50:34.143Z,24.70
2018-07-16T11:53:03.131Z,24.40
2018-07-16T11:57:59.865Z,23.00
2018-07-16T12:00:28.473Z,23.30
2018-07-16T12:05:25.284Z,23.20
2018-07-16T12:07:54.347Z,22.70
2018-07-16T12:10:22.986Z,22.80
2018-07-16T12:12:51.625Z,23.20
2018-07-16T12:15:20.189Z,23.40
2018-07-16T12:17:48.680Z,23.90
2018-07-16T12:20:17.271Z,23.30
2018-07-16T12:22:46.762Z,23.10
2018-07-16T12:25:15.293Z,22.60
2018-07-16T12:27:43.948Z,24.00
2018-07-16T12:30:12.561Z,23.50
2018-07-16T12:32:41.188Z,23.40
2018-07-16T12:35:09.846Z,23.50
2018-07-16T12:37:38.460Z,23.40
2018-07-16T12:40:07.098Z,23.60
2018-07-16T12:42:35.749Z,23.60
2018-07-16T12:45:04.385Z,23.30
2018-07-16T12:47:33.093Z,23.10
2018-07-16T12:50:02.049Z,23.10
2018-07-16T12:52:30.920Z,23.10
2018-07-16T12:54:59.523Z,22.80
2018-07-16T12:57:29.351Z,22.80
2018-07-16T12:59:58.034Z,22.70
2018-07-16T13:04:54.919Z,22.80
2018-07-16T13:07:24.630Z,22.70
2018-07-16T13:09:53.305Z,22.30
2018-07-16T13:12:21.856Z,22.00
2018-07-16T13:17:19.504Z,22.00
2018-07-16T13:19:48.068Z,21.80
2018-07-16T13:22:16.628Z,21.70
2018-07-16T13:24:45.206Z,21.30
2018-07-16T13:27:13.827Z,21.90
2018-07-16T13:29:42.529Z,21.50
2018-07-16T13:32:11.170Z,21.20
2018-07-16T13:34:39.872Z,21.50
2018-07-16T13:37:10.495Z,21.50
2018-07-16T13:39:40.549Z,21.30
2018-07-16T13:44:37.883Z,21.50
2018-07-16T13:47:06.922Z,21.80
2018-07-16T13:49:36.770Z,21.20
2018-07-16T13:52:05.475Z,21.10
2018-07-16T13:54:34.042Z,21.30
2018-07-16T13:57:03.342Z,21.20
2018-07-16T13:59:31.896Z,21.20
2018-07-16T14:02:11.946Z,21.30
2018-07-16T14:07:53.348Z,22.00
2018-07-16T14:10:51.665Z,22.40
2018-07-16T14:16:13.580Z,22.30
2018-07-16T14:18:47.064Z,22.70
2018-07-16T14:24:23.489Z,22.70
2018-07-16T14:26:52.115Z,22.60
2018-07-16T14:29:20.690Z,22.30
2018-07-16T14:31:49.254Z,22.30
2018-07-16T14:34:21.484Z,22.20
2018-07-16T14:36:49.995Z,22.40
2018-07-16T14:39:18.664Z,22.00
2018-07-16T14:41:47.132Z,22.00
2018-07-16T14:44:16.092Z,22.00
2018-07-16T14:46:44.573Z,22.20
2018-07-16T14:49:14.188Z,22.10
2018-07-16T14:51:43.372Z,22.00
2018-07-16T14:54:12.025Z,22.00
2018-07-16T14:56:40.555Z,21.90
2018-07-16T14:59:09.099Z,21.80
2018-07-16T15:01:37.706Z,21.80
2018-07-16T15:04:06.467Z,21.30
2018-07-16T15:06:35.019Z,21.30
2018-07-16T15:09:04.646Z,21.30
2018-07-16T15:11:33.235Z,21.00
2018-07-16T15:14:01.892Z,20.90
2018-07-16T15:16:30.365Z,21.00
2018-07-16T15:19:00.228Z,21.10
2018-07-16T15:21:29.124Z,21.40
2018-07-16T15:23:57.571Z,21.30
2018-07-16T15:26:26.320Z,21.50
2018-07-16T15:31:24.599Z,21.10
2018-07-16T15:36:22.462Z,20.60
2018-07-16T15:38:51.425Z,20.80
2018-07-16T15:41:20.045Z,20.80
2018-07-16T15:43:49.361Z,21.00
2018-07-16T15:46:18.133Z,21.00
2018-07-16T15:48:46.744Z,20.80
2018-07-16T15:53:43.466Z,21.00
2018-07-16T15:56:12.959Z,21.00
2018-07-16T15:58:43.144Z,20.70
2018-07-16T16:01:11.775Z,20.90
2018-07-16T16:03:40.548Z,21.00
2018-07-16T16:06:09.136Z,20.80
2018-07-16T16:08:44.705Z,20.70
2018-07-16T16:11:32.591Z,20.50
2018-07-16T16:14:01.456Z,20.20
2018-07-16T16:16:30.102Z,20.30
2018-07-16T16:18:58.624Z,20.50
2018-07-16T16:21:27.388Z,20.70
2018-07-16T16:26:24.061Z,20.40
2018-07-16T16:28:52.707Z,20.80
2018-07-16T16:31:22.201Z,20.10
2018-07-16T17:02:14.194Z,20.60
2018-07-16T17:04:43.816Z,21.00
2018-07-16T17:07:12.835Z,21.10
2018-07-16T17:09:41.604Z,21.60
2018-07-16T17:12:10.340Z,21.40
2018-07-16T17:14:38.899Z,22.20
2018-07-16T17:17:07.791Z,22.60
2018-07-16T17:19:36.357Z,22.60
2018-07-16T17:22:04.924Z,22.30
2018-07-16T17:24:37.049Z,22.10
2018-07-16T17:27:05.676Z,22.30
2018-07-16T17:29:34.480Z,22.20
2018-07-16T17:32:03.944Z,22.30
2018-07-16T17:34:32.792Z,22.40
2018-07-16T17:37:01.354Z,22.30
2018-07-16T17:39:29.936Z,22.10
2018-07-16T17:41:58.501Z,22.30
2018-07-16T17:44:27.091Z,22.50
2018-07-16T17:46:56.179Z,22.20
2018-07-16T17:49:26.203Z,22.70
2018-07-16T17:51:55.762Z,22.90
2018-07-16T17:54:25.663Z,22.90
2018-07-16T17:59:36.590Z,23.10
2018-07-16T18:05:56.496Z,23.10
2018-07-16T18:08:25.736Z,23.10
2018-07-16T18:10:55.753Z,22.90
2018-07-16T18:13:26.236Z,23.00
2018-07-16T18:16:04.842Z,22.90
2018-07-16T18:18:37.863Z,23.20
2018-07-16T18:21:09.864Z,23.50
2018-07-16T18:23:54.200Z,23.40
2018-07-16T18:26:34.572Z,23.90
2018-07-16T18:29:03.258Z,23.50
2018-07-16T18:31:32.283Z,23.40
2018-07-16T18:34:00.982Z,23.50
2018-07-16T18:36:29.568Z,24.30
2018-07-16T18:38:59.801Z,23.70
2018-07-16T18:41:28.809Z,23.60
2018-07-16T18:44:01.271Z,23.60
2018-07-16T18:51:27.273Z,24.20
2018-07-16T18:53:56.938Z,24.30
2018-07-16T18:56:31.015Z,24.80
2018-07-16T18:59:00.189Z,24.50
2018-07-16T19:01:29.077Z,24.50
2018-07-16T19:03:57.911Z,24.30
2018-07-16T19:06:26.595Z,24.20
2018-07-16T19:08:55.312Z,24.60
2018-07-16T19:16:20.258Z,24.70
2018-07-16T19:18:55.761Z,24.80
2018-07-16T19:21:24.437Z,25.00
2018-07-16T19:23:57.638Z,25.30
2018-07-16T19:26:27.596Z,25.50
2018-07-16T19:31:59.682Z,25.70
2018-07-16T19:34:28.259Z,25.60
2018-07-16T19:39:25.798Z,25.60
2018-07-16T19:41:54.367Z,26.00
2018-07-16T19:44:24.984Z,26.00
2018-07-16T19:46:53.798Z,25.40
2018-07-16T19:49:22.552Z,26.00
2018-07-16T19:51:51.194Z,26.00
2018-07-16T19:54:20.194Z,26.20
2018-07-16T19:56:49.059Z,25.90
2018-07-16T19:59:21.831Z,26.10
2018-07-16T20:01:50.716Z,26.20
2018-07-16T20:04:19.479Z,26.50
2018-07-16T20:06:55.471Z,26.50
2018-07-16T20:09:25.355Z,26.90
2018-07-16T20:15:37.467Z,27.60
2018-07-16T20:18:29.048Z,27.20
2018-07-16T20:23:54.523Z,27.50
2018-07-16T20:32:25.928Z,27.30
2018-07-16T20:49:17.101Z,27.50
2018-07-16T20:51:45.696Z,27.60
2018-07-16T20:54:14.257Z,27.60
2018-07-16T20:56:42.844Z,27.70
2018-07-16T20:59:11.389Z,27.60
2018-07-16T21:01:39.947Z,27.60
2018-07-16T21:04:08.469Z,27.80
2018-07-16T21:06:37.066Z,27.80
2018-07-16T21:09:07.588Z,27.80
2018-07-16T21:11:36.227Z,27.80
2018-07-16T21:14:04.833Z,27.90
2018-07-16T21:19:02.131Z,28.20
2018-07-16T21:21:30.882Z,28.20
2018-07-16T21:28:57.120Z,28.50
2018-07-16T21:31:26.482Z,28.60
2018-07-16T21:33:55.137Z,28.40
2018-07-16T21:38:56.248Z,29.00
2018-07-16T21:41:24.930Z,29.20
2018-07-16T21:43:53.526Z,29.20
2018-07-16T21:46:22.122Z,29.30
2018-07-16T21:48:50.690Z,29.30
2018-07-16T21:51:21.343Z,29.30
2018-07-16T21:53:49.907Z,29.40
2018-07-16T21:56:18.545Z,29.60
2018-07-16T21:58:47.307Z,29.90
2018-07-16T22:01:16.066Z,29.80
2018-07-16T22:03:44.630Z,29.90
2018-07-16T22:06:13.281Z,30.00
2018-07-16T22:08:41.890Z,30.10
2018-07-16T22:11:10.449Z,30.40
2018-07-16T22:13:38.967Z,30.80
2018-07-16T22:16:08.065Z,31.10
2018-07-16T22:18:37.535Z,31.30
2018-07-16T22:21:06.179Z,31.60
2018-07-16T22:23:36.206Z,31.90
2018-07-16T22:26:04.679Z,32.20
2018-07-16T22:28:33.406Z,32.50
2018-07-16T22:31:01.941Z,32.60
2018-07-16T22:33:30.516Z,32.90
2018-07-16T22:36:00.965Z,33.20
2018-07-16T22:38:29.488Z,33.30
2018-07-16T22:40:57.967Z,33.50
2018-07-16T22:43:26.523Z,33.70
2018-07-16T22:45:55.267Z,33.90
2018-07-16T22:48:23.771Z,34.10
2018-07-16T22:50:52.292Z,34.30
2018-07-16T22:53:20.800Z,34.40
2018-07-16T22:55:49.291Z,34.60
2018-07-16T22:58:17.862Z,34.70
2018-07-16T23:00:46.389Z,35.00
2018-07-16T23:03:14.855Z,35.10
2018-07-16T23:05:43.406Z,35.40
2018-07-16T23:08:12.857Z,35.50
2018-07-16T23:10:42.205Z,36.00
2018-07-16T23:13:10.714Z,36.20
2018-07-16T23:15:39.279Z,36.10
2018-07-16T23:18:07.922Z,36.50
2018-07-16T23:20:37.283Z,36.60
2018-07-16T23:25:34.023Z,36.90
2018-07-16T23:28:03.144Z,37.00
2018-07-16T23:32:59.865Z,37.00
2018-07-16T23:35:28.372Z,37.10
2018-07-16T23:37:56.923Z,37.10
2018-07-16T23:40:26.539Z,37.10
2018-07-16T23:42:56.119Z,37.50
2018-07-16T23:45:24.633Z,37.40
2018-07-16T23:47:53.168Z,37.60
2018-07-16T23:50:21.768Z,37.60
2018-07-16T23:52:50.298Z,37.80
2018-07-16T23:55:18.872Z,37.90
2018-07-16T23:57:48.175Z,37.80
